Espace membre
Imprimable
Challenges > Delhalle - Chatelet, 03/06/2007, BEL - La Chatelettaine
Liste des rapports > Delhalle - La Chatelettaine - 14.1km
Recherche: Page: [1]
48 Entrées
 
Les réclamations ne sont plus acceptées, les résultats sont considérés comme définitifs.
RangNrNomAgeIOCLigueEquipeRéelTempsTkmMoy.ScrPtsLocalité
1.2376FVANDENBROECK Marlene44BEL56:4156:424:02 14.9238900WELLE
2.349FFERNANDES Cristina41BELRCNAMUR1:00:541:01:104:21 13.8399789MALONNE
3.914FVAN HOOF Wella44BELLIER1:02:321:02:394:27 13.50117751BERLAAR
4.2019FCOPPENS Linda47BELVS1:03:241:03:264:30 13.34125732MOORSEL
5.336FDE VROEDE Nadine46BELUSBWROAD TEAM1:04:091:04:334:35 13.11144709BRAINE L'ALLEUD
6.235FHOUBART Cécile40BELRONVAU1:07:591:08:034:50 12.43209610JODOIGNE
7.366FLANSLOTS Viviane42BELAVN1:08:191:08:454:53 12.31221598MERKSPLAS
8.2039FRUFFELET Françoise44BELJC HSH1:08:431:08:494:53 12.29223591MONT-SUR-MARCHIENNE
9.1994FVAN DE MOORTEL Heidi40BELKAPUCIJN1:08:521:09:014:54 12.26228586TREMELO
10.1989FDEMOULIN Brigitte47BELSMAC1:09:151:09:344:57 12.16234576LUSTIN
11.379FMESTACH Cristine46BELFLEUFLEURUS1:10:191:10:195:00 12.03244554MARBAIS
12.186FCOURTOIS Valerie40BELJCCS1:11:461:11:555:07 11.76276514GEDINNE
13.1881FBLAISE Christiane45BELARCH1:11:511:12:055:07 11.74279511ANTHEE
14.537FAMEYS Chantal40BELRUN SPIRIT1:11:541:12:195:08 11.70283508ROOSDAAL
15.2419FDE WOOT Antoinette43BELESM1:12:181:12:525:11 11.61291497LOBBES
16.2029FDELITTE Benedicte40ABWACCOJMBOUDIN1:14:221:14:555:19 11.29326447
17.539FSECCI Doriane42BELACLO1:14:331:14:565:19 11.29328443MORLANWEZ
18.1635FDIDEBERG Gaby49BELSCBUTG1:14:591:15:195:21 11.23332435STAVELOT
19.2211FBOULANGER Christine42BELESMESM1:14:521:15:255:21 11.22333436LEERNES
20.1432FSALENS Lia42BEL1:15:401:16:095:25 11.11345418WOLVERTEM
21.1427FMARION Paulette48BELARCH1:15:591:16:135:25 11.10347413CINEY
22.1243FHENRY Francoise43BELTENDONS1:16:061:16:275:26 11.07353407LA HULPE
23.2333FMAROT Anne47BEL1:18:501:19:145:38 10.68394346BRAINE-L'ALLEUD
24.2021FGILLES Françoise49BELESMESM1:19:431:20:175:42 10.54406328MONTIGNY-LE-TILLEUL
25.2255FTYTGAT Ingrid48BELJC THIMÉON1:20:291:20:535:45 10.46415312ROUX
26.2424FDEPIREUX Colette49BELTORTUES1:20:451:21:175:46 10.41422304BRUGELETTE
27.1860FDEBILDE Anne-Francoise48BELRONVAU1:22:521:23:055:54 10.18449262PERWEZ
28.2379FCOLLIN Francoise45BELJC METTET1:22:491:23:105:54 10.17451261
29.496FUBIETA Martine44BELFOUL PLAIS1:23:331:23:575:58 10.08458248VINALMONT
30.2218FCONSTANT M.Christine47BELTORTUE MES.1:23:481:24:195:59 10.03459244ATH
31.1700FPETERS Chantal44BEL1:24:101:24:546:02 9.96464237MALONNE
32.300FADAM Francoise46BELHRC1:24:521:25:006:02 9.95469225CHENOIS
33.2328FHOSLET Corine41BEL1:24:401:25:076:03 9.94470227MONT/S/MARCHIENNE
34.773FDEMARCHE Francoise45BEL1:24:561:25:256:04 9.90474221YVOIR
35.1396FWENDRICKX Brigitte46BELAVN1:25:481:26:076:07 9.82479208WORTEL
36.2036FDEWILDE Magali43BELDACMJOGGANS1:25:581:26:186:08 9.80482204MOLENBEEK-ST-JEAN
37.2217FCARLIER Marie Paule46BELTORTUES1:27:381:28:106:16 9.60491178MÉVERGNIES
38.2331FHAVAUX Isabelle45BELTORTUES ME1:29:321:30:106:24 9.38501150
39.2322FDESCORNEZ Patricia44BELTORTUES1:31:531:32:246:34 9.16510118MAFFLE-ATH
40.2230FLUSCHER J. Ann45BEL1:31:551:32:316:34 9.14511117IXELLES
41.2207FDELVIN Regine44BELTORTUES1:32:411:32:516:36 9.11515106BASSILLY
42.1690FLEFEVRE Joelle43BELDAMPHRC1:32:271:32:536:36 9.11516108CHATILLON
43.2256FPOLLE Caroll45BELLDLVLDLV1:33:561:34:226:42 8.9752686BRUXELLES
44.2298FLEROY Anne45BELTORTUES1:34:181:34:506:44 8.9253079SILLY
45.2366FVAN ROOIJ Carine45BEL1:34:241:34:536:44 8.9253177
46.2243FPAQUOT Marylène49BELJCCS1:34:361:34:596:45 8.9153275GEDINNE
47.2215FCERINI Carla40BELESM1:35:531:36:216:50 8.7853957FONTAINE-L'EVEQUE
48.2037FANDREWS Karen43BEL1:51:051:51:337:55 7.585542BRUXELLES
DNF: abandon; DSQ: disqualifié; Vitesse en km/h
Page: [1]